createdAt,value
2023-05-18T00:02:17.983Z,2.53
2023-05-18T00:04:44.877Z,3.35
2023-05-18T00:07:12.582Z,2.83
2023-05-18T00:09:39.372Z,2.70
2023-05-18T00:12:06.523Z,2.75
2023-05-18T00:14:33.639Z,2.60
2023-05-18T00:17:01.849Z,2.92
2023-05-18T00:19:30.063Z,3.08
2023-05-18T00:21:57.905Z,2.85
2023-05-18T00:24:24.948Z,3.33
2023-05-18T00:26:51.727Z,3.13
2023-05-18T00:29:18.523Z,3.88
2023-05-18T00:31:46.892Z,2.92
2023-05-18T00:34:15.573Z,3.53
2023-05-18T00:36:43.065Z,3.30
2023-05-18T00:39:10.297Z,3.50
2023-05-18T00:41:37.128Z,2.58
2023-05-18T00:44:04.909Z,3.03
2023-05-18T00:46:32.227Z,3.17
2023-05-18T00:49:02.291Z,3.20
2023-05-18T00:51:31.711Z,3.47
2023-05-18T00:54:00.792Z,3.13
2023-05-18T00:56:29.075Z,3.13
2023-05-18T00:58:57.266Z,3.60
2023-05-18T01:01:34.832Z,2.92
2023-05-18T01:04:03.130Z,3.20
2023-05-18T01:06:35.838Z,2.83
2023-05-18T01:09:06.721Z,3.05
2023-05-18T01:11:55.758Z,3.22
2023-05-18T01:14:30.884Z,2.92
2023-05-18T01:17:17.194Z,3.40
2023-05-18T01:20:07.343Z,2.85
2023-05-18T01:22:50.713Z,2.67
2023-05-18T01:25:36.634Z,4.25
2023-05-18T01:28:13.948Z,3.65
2023-05-18T01:30:41.913Z,3.67
2023-05-18T01:33:11.413Z,3.58
2023-05-18T01:35:39.100Z,3.17
2023-05-18T01:38:06.320Z,3.67
2023-05-18T01:40:53.473Z,3.15
2023-05-18T01:43:24.625Z,3.20
2023-05-18T01:45:58.974Z,3.53
2023-05-18T01:48:26.188Z,4.25
2023-05-18T01:50:57.346Z,3.28
2023-05-18T01:53:27.867Z,3.43
2023-05-18T01:55:55.664Z,3.70
2023-05-18T01:58:23.718Z,3.63
2023-05-18T02:00:51.398Z,4.07
2023-05-18T02:03:18.347Z,4.05
2023-05-18T02:05:45.500Z,3.25
2023-05-18T02:08:12.470Z,3.78
2023-05-18T02:10:39.281Z,3.42
2023-05-18T02:13:07.690Z,3.75
2023-05-18T02:15:35.308Z,4.22
2023-05-18T02:18:02.930Z,3.22
2023-05-18T02:23:00.409Z,3.10
2023-05-18T02:25:27.954Z,2.90
2023-05-18T02:27:54.922Z,3.42
2023-05-18T02:30:21.730Z,3.13
2023-05-18T02:32:50.485Z,3.35
2023-05-18T02:35:18.280Z,3.15
2023-05-18T02:37:45.397Z,3.72
2023-05-18T02:40:13.490Z,4.47
2023-05-18T02:42:43.458Z,3.78
2023-05-18T02:45:11.344Z,3.45
2023-05-18T02:47:41.093Z,3.75
2023-05-18T02:50:08.264Z,3.40
2023-05-18T02:52:35.959Z,3.65
2023-05-18T02:55:03.489Z,3.60
2023-05-18T02:57:56.946Z,3.15
2023-05-18T03:00:32.436Z,2.90
2023-05-18T03:03:00.488Z,3.05
2023-05-18T03:05:28.573Z,3.20
2023-05-18T03:07:55.470Z,3.53
2023-05-18T03:10:22.647Z,3.15
2023-05-18T03:12:50.513Z,3.15
2023-05-18T03:15:17.552Z,2.88
2023-05-18T03:17:44.512Z,3.13
2023-05-18T03:20:15.693Z,3.60
2023-05-18T03:22:42.790Z,4.18
2023-05-18T03:25:09.481Z,2.88
2023-05-18T03:27:37.793Z,5.82
2023-05-18T03:30:05.248Z,3.70
2023-05-18T03:32:33.272Z,3.08
2023-05-18T03:35:01.191Z,3.42
2023-05-18T03:37:28.617Z,3.08
2023-05-18T03:40:00.257Z,3.47
2023-05-18T03:42:31.322Z,3.50
2023-05-18T03:44:58.350Z,3.42
2023-05-18T03:47:25.120Z,3.10
2023-05-18T03:49:51.956Z,3.22
2023-05-18T03:52:22.172Z,4.28
2023-05-18T03:54:49.751Z,3.22
2023-05-18T03:57:17.479Z,2.75
2023-05-18T03:59:45.441Z,3.22
2023-05-18T04:02:13.059Z,2.85
2023-05-18T04:04:46.032Z,3.17
2023-05-18T04:07:15.448Z,3.33
2023-05-18T04:09:43.861Z,3.10
2023-05-18T04:12:11.174Z,3.45
2023-05-18T04:14:38.042Z,2.83
2023-05-18T04:17:07.066Z,3.30
2023-05-18T04:19:35.289Z,3.20
2023-05-18T04:22:07.071Z,3.22
2023-05-18T04:24:34.868Z,3.30
2023-05-18T04:27:03.186Z,3.10
2023-05-18T04:29:31.264Z,3.60
2023-05-18T04:32:02.272Z,3.97
2023-05-18T04:34:30.094Z,3.17
2023-05-18T04:37:00.552Z,3.40
2023-05-18T04:39:27.871Z,4.10
2023-05-18T04:41:58.186Z,4.32
2023-05-18T04:44:27.540Z,4.13
2023-05-18T04:46:55.939Z,3.72
2023-05-18T04:49:26.127Z,3.95
2023-05-18T04:51:59.857Z,4.03
2023-05-18T04:54:30.931Z,3.40
2023-05-18T04:56:58.938Z,4.57
2023-05-18T04:59:26.550Z,3.75
2023-05-18T05:01:56.040Z,4.80
2023-05-18T05:04:24.285Z,4.07
2023-05-18T05:06:51.162Z,3.75
2023-05-18T05:09:18.009Z,3.75
2023-05-18T05:11:44.887Z,3.15
2023-05-18T05:14:11.769Z,3.28
2023-05-18T05:16:39.427Z,2.55
2023-05-18T05:19:06.621Z,2.53
2023-05-18T05:21:33.548Z,1.85
2023-05-18T05:24:05.027Z,2.90
2023-05-18T05:26:32.407Z,2.47
2023-05-18T05:28:59.191Z,2.45
2023-05-18T05:31:25.984Z,2.63
2023-05-18T05:33:52.733Z,2.30
2023-05-18T05:36:19.933Z,1.73
2023-05-18T05:38:46.667Z,1.85
2023-05-18T05:41:13.595Z,2.30
2023-05-18T05:43:40.747Z,1.73
2023-05-18T05:46:07.517Z,1.85
2023-05-18T05:48:34.281Z,1.45
2023-05-18T05:51:02.229Z,1.50
2023-05-18T05:53:30.470Z,1.58
2023-05-18T05:55:57.894Z,2.13
2023-05-18T05:58:24.684Z,1.83
2023-05-18T06:00:56.099Z,1.73
2023-05-18T06:03:23.197Z,2.03
2023-05-18T06:05:50.186Z,1.30
2023-05-18T06:08:19.332Z,1.88
2023-05-18T06:10:47.311Z,1.38
2023-05-18T06:13:14.113Z,1.75
2023-05-18T06:18:13.751Z,1.30
2023-05-18T06:20:40.828Z,1.58
2023-05-18T06:23:07.734Z,2.40
2023-05-18T06:26:03.131Z,1.55
2023-05-18T06:28:33.026Z,2.10
2023-05-18T06:31:07.950Z,2.53
2023-05-18T06:33:46.190Z,2.70
2023-05-18T06:36:13.579Z,2.22
2023-05-18T06:38:40.362Z,1.70
2023-05-18T06:41:07.176Z,2.00
2023-05-18T06:43:34.334Z,2.63
2023-05-18T06:46:23.766Z,2.58
2023-05-18T06:48:54.531Z,1.95
2023-05-18T06:51:21.434Z,1.63
2023-05-18T06:53:48.525Z,1.35
2023-05-18T06:56:15.219Z,1.35
2023-05-18T06:58:44.203Z,1.52
2023-05-18T07:01:11.312Z,2.08
2023-05-18T07:03:38.176Z,1.42
2023-05-18T07:06:05.595Z,1.65
2023-05-18T07:08:32.876Z,1.15
2023-05-18T07:11:02.327Z,1.58
2023-05-18T07:13:29.275Z,2.15
2023-05-18T07:15:56.052Z,1.35
2023-05-18T07:18:22.813Z,1.42
2023-05-18T07:20:50.761Z,1.80
2023-05-18T07:23:17.702Z,1.48
2023-05-18T07:25:44.684Z,1.70
2023-05-18T07:28:11.626Z,1.90
2023-05-18T07:30:38.409Z,1.17
2023-05-18T07:33:05.209Z,1.55
2023-05-18T07:35:33.088Z,1.38
2023-05-18T07:38:00.175Z,1.02
2023-05-18T07:40:27.984Z,1.40
2023-05-18T07:42:54.827Z,1.40
2023-05-18T07:45:22.032Z,1.58
2023-05-18T07:47:48.781Z,1.30
2023-05-18T07:50:15.730Z,1.63
2023-05-18T07:52:43.871Z,1.98
2023-05-18T07:55:11.387Z,1.13
2023-05-18T07:57:38.141Z,1.50
2023-05-18T08:00:06.627Z,1.98
2023-05-18T08:02:39.891Z,1.30
2023-05-18T08:05:07.612Z,1.60
2023-05-18T08:07:34.328Z,1.42
2023-05-18T08:10:01.052Z,2.22
2023-05-18T08:12:29.897Z,1.27
2023-05-18T08:14:57.084Z,1.33
2023-05-18T08:17:23.822Z,1.13
2023-05-18T08:19:50.770Z,1.38
2023-05-18T08:22:17.485Z,1.40
2023-05-18T08:24:45.094Z,2.10
2023-05-18T08:27:11.918Z,1.08
2023-05-18T08:29:38.646Z,1.65
2023-05-18T08:32:07.162Z,1.50
2023-05-18T08:34:34.506Z,1.67
2023-05-18T08:37:01.431Z,1.60
2023-05-18T08:39:32.250Z,2.00
2023-05-18T08:42:17.016Z,1.88
2023-05-18T08:44:56.589Z,1.15
2023-05-18T08:47:26.612Z,1.73
2023-05-18T08:49:56.613Z,1.83
2023-05-18T08:52:28.476Z,1.67
2023-05-18T08:57:27.398Z,1.45
2023-05-18T08:59:56.376Z,1.85
2023-05-18T09:02:24.165Z,1.58
2023-05-18T09:04:51.889Z,1.60
2023-05-18T09:07:20.499Z,1.70
2023-05-18T09:09:48.783Z,1.65
2023-05-18T09:12:17.246Z,1.25
2023-05-18T09:14:46.220Z,1.88
2023-05-18T09:17:13.016Z,1.90
2023-05-18T09:19:40.573Z,1.83
2023-05-18T09:22:07.378Z,1.50
2023-05-18T09:24:36.670Z,1.40
2023-05-18T09:27:04.858Z,1.48
2023-05-18T09:29:33.887Z,1.60
2023-05-18T09:32:08.540Z,1.35
2023-05-18T09:34:42.496Z,2.30
2023-05-18T09:37:09.963Z,1.58
2023-05-18T09:39:36.858Z,1.63
2023-05-18T09:42:04.512Z,1.50
2023-05-18T09:44:33.674Z,1.70
2023-05-18T09:47:00.892Z,1.55
2023-05-18T09:49:31.550Z,1.65
2023-05-18T09:52:01.092Z,1.52
2023-05-18T09:54:28.043Z,1.42
2023-05-18T09:57:09.573Z,1.75
2023-05-18T09:59:37.541Z,1.83
2023-05-18T10:02:06.069Z,1.75
2023-05-18T10:04:41.503Z,1.38
2023-05-18T10:07:16.671Z,1.75
2023-05-18T10:09:45.424Z,1.42
2023-05-18T10:12:14.201Z,2.28
2023-05-18T10:14:42.942Z,1.25
2023-05-18T10:17:16.907Z,2.33
2023-05-18T10:19:55.232Z,1.45
2023-05-18T10:22:23.391Z,1.60
2023-05-18T10:24:54.565Z,1.90
2023-05-18T10:27:28.289Z,2.42
2023-05-18T10:29:58.525Z,1.60
2023-05-18T10:32:26.249Z,1.60
2023-05-18T10:34:54.078Z,1.83
2023-05-18T10:37:23.954Z,1.67
2023-05-18T10:39:52.112Z,1.50
2023-05-18T10:42:20.091Z,1.58
2023-05-18T10:44:47.834Z,2.80
2023-05-18T10:47:15.509Z,1.75
2023-05-18T10:49:48.659Z,1.50
2023-05-18T10:52:17.743Z,1.75
2023-05-18T10:54:45.189Z,1.27
2023-05-18T10:57:19.823Z,1.70
2023-05-18T10:59:48.601Z,1.50
2023-05-18T11:02:18.198Z,1.67
2023-05-18T11:04:47.405Z,1.77
2023-05-18T11:07:14.946Z,2.00
2023-05-18T11:09:43.573Z,1.40
2023-05-18T11:12:14.843Z,1.27
2023-05-18T11:14:50.315Z,1.33
2023-05-18T11:17:25.258Z,1.27
2023-05-18T11:20:11.780Z,1.42
2023-05-18T11:22:52.674Z,2.00
2023-05-18T11:25:25.655Z,1.70
2023-05-18T11:27:54.246Z,1.75
2023-05-18T11:30:27.807Z,1.95
2023-05-18T11:33:17.443Z,2.10
2023-05-18T11:35:59.387Z,1.83
2023-05-18T11:38:55.399Z,1.90
2023-05-18T11:41:34.259Z,1.50
2023-05-18T11:44:18.222Z,1.40
2023-05-18T11:47:10.985Z,1.48
2023-05-18T11:49:46.441Z,1.70
2023-05-18T11:52:18.278Z,1.88
2023-05-18T11:54:59.339Z,1.58
2023-05-18T11:57:38.888Z,1.97
2023-05-18T12:00:13.499Z,1.75
2023-05-18T12:02:44.135Z,1.67
2023-05-18T12:05:11.621Z,1.75
2023-05-18T12:07:39.174Z,1.75
2023-05-18T12:10:12.589Z,1.77
2023-05-18T12:12:40.092Z,1.73
2023-05-18T12:15:11.533Z,1.65
2023-05-18T12:20:11.161Z,1.30
2023-05-18T12:22:39.914Z,1.80
2023-05-18T12:25:07.772Z,1.92
2023-05-18T12:27:45.108Z,1.58
2023-05-18T12:30:14.041Z,2.53
2023-05-18T12:32:52.254Z,1.88
2023-05-18T12:35:26.780Z,1.52
2023-05-18T12:37:56.050Z,1.88
2023-05-18T12:40:23.409Z,2.88
2023-05-18T12:42:57.090Z,1.65
2023-05-18T12:45:27.665Z,1.35
2023-05-18T12:47:56.244Z,1.55
2023-05-18T12:50:26.551Z,1.85
2023-05-18T12:52:55.014Z,1.55
2023-05-18T12:55:22.434Z,1.80
2023-05-18T12:58:02.428Z,1.52
2023-05-18T13:00:33.961Z,1.98
2023-05-18T13:03:08.908Z,1.58
2023-05-18T13:05:37.179Z,1.75
2023-05-18T13:08:04.276Z,1.30
2023-05-18T13:10:32.664Z,2.17
2023-05-18T13:13:06.053Z,2.10
2023-05-18T13:15:37.812Z,1.50
2023-05-18T13:20:45.382Z,2.63
2023-05-18T13:23:14.133Z,1.13
2023-05-18T13:25:41.815Z,1.60
2023-05-18T13:28:11.173Z,1.42
2023-05-18T13:30:39.437Z,1.30
2023-05-18T13:33:08.263Z,1.90
2023-05-18T13:35:43.260Z,1.48
2023-05-18T13:38:11.043Z,1.65
2023-05-18T13:40:37.976Z,1.67
2023-05-18T13:43:06.171Z,1.42
2023-05-18T13:45:35.713Z,1.98
2023-05-18T13:48:09.556Z,1.30
2023-05-18T13:50:37.677Z,1.40
2023-05-18T13:53:04.637Z,1.23
2023-05-18T13:55:31.705Z,1.27
2023-05-18T13:57:58.744Z,1.08
2023-05-18T14:00:26.140Z,1.45
2023-05-18T14:02:53.287Z,1.38
2023-05-18T14:05:20.376Z,1.38
2023-05-18T14:07:47.148Z,1.90
2023-05-18T14:10:13.944Z,1.20
2023-05-18T14:12:42.763Z,2.05
2023-05-18T14:15:11.429Z,1.27
2023-05-18T14:17:38.194Z,1.42
2023-05-18T14:20:06.100Z,1.98
2023-05-18T14:22:33.748Z,1.63
2023-05-18T14:25:01.097Z,1.30
2023-05-18T14:27:29.630Z,1.63
2023-05-18T14:29:56.512Z,1.50
2023-05-18T14:32:23.469Z,1.25
2023-05-18T14:34:55.761Z,1.40
2023-05-18T14:37:22.625Z,1.15
2023-05-18T14:39:49.560Z,1.67
2023-05-18T14:42:16.447Z,1.27
2023-05-18T14:44:43.237Z,1.45
2023-05-18T14:47:10.934Z,1.27
2023-05-18T14:49:37.986Z,1.10
2023-05-18T14:52:05.267Z,1.42
2023-05-18T14:54:31.987Z,1.52
2023-05-18T14:56:59.631Z,1.30
2023-05-18T14:59:26.419Z,1.35
2023-05-18T15:01:53.157Z,1.60
2023-05-18T15:04:21.848Z,1.80
2023-05-18T15:06:49.597Z,1.33
2023-05-18T15:09:16.591Z,1.90
2023-05-18T15:11:43.386Z,1.40
2023-05-18T15:14:10.194Z,1.40
2023-05-18T15:16:37.220Z,1.23
2023-05-18T15:19:05.212Z,1.48
2023-05-18T15:21:32.079Z,1.27
2023-05-18T15:23:58.791Z,1.38
2023-05-18T15:26:26.121Z,1.42
2023-05-18T15:28:52.932Z,1.70
2023-05-18T15:31:19.825Z,1.52
2023-05-18T15:33:46.918Z,1.23
2023-05-18T15:36:16.500Z,0.80
2023-05-18T15:38:43.196Z,1.02
2023-05-18T15:41:09.880Z,1.33
2023-05-18T15:43:37.445Z,1.63
2023-05-18T15:46:04.820Z,1.80
2023-05-18T15:48:31.766Z,1.25
2023-05-18T15:50:58.526Z,1.50
2023-05-18T15:53:25.222Z,2.10
2023-05-18T15:55:56.640Z,1.38
2023-05-18T15:58:25.426Z,1.30
2023-05-18T16:00:52.296Z,1.50
2023-05-18T16:03:19.264Z,1.48
2023-05-18T16:05:46.242Z,1.30
2023-05-18T16:08:13.014Z,1.45
2023-05-18T16:10:39.768Z,1.15
2023-05-18T16:13:06.530Z,0.98
2023-05-18T16:15:36.508Z,1.40
2023-05-18T16:18:03.552Z,1.80
2023-05-18T16:20:30.747Z,1.15
2023-05-18T16:22:58.359Z,1.48
2023-05-18T16:25:26.227Z,1.20
2023-05-18T16:27:52.970Z,1.60
2023-05-18T16:30:20.960Z,2.40
2023-05-18T16:32:48.048Z,1.70
2023-05-18T16:35:17.614Z,1.30
2023-05-18T16:37:50.672Z,1.52
2023-05-18T16:40:17.376Z,1.50
2023-05-18T16:42:47.216Z,1.35
2023-05-18T16:45:14.137Z,1.83
2023-05-18T16:47:40.915Z,1.70
2023-05-18T16:50:08.705Z,1.60
2023-05-18T16:52:35.385Z,1.77
2023-05-18T16:55:02.720Z,1.45
2023-05-18T16:57:30.136Z,1.50
2023-05-18T16:59:56.860Z,2.25
2023-05-18T17:02:24.381Z,1.58
2023-05-18T17:04:51.464Z,1.40
2023-05-18T17:07:18.485Z,1.38
2023-05-18T17:09:45.339Z,1.67
2023-05-18T17:12:12.356Z,1.67
2023-05-18T17:14:39.349Z,1.35
2023-05-18T17:17:07.074Z,1.33
2023-05-18T17:19:38.478Z,1.85
2023-05-18T17:22:06.117Z,1.75
2023-05-18T17:24:32.820Z,1.30
2023-05-18T17:26:59.665Z,1.50
2023-05-18T17:29:27.023Z,1.88
2023-05-18T17:31:53.961Z,2.00
2023-05-18T17:34:21.026Z,1.08
2023-05-18T17:36:49.202Z,1.42
2023-05-18T17:39:16.563Z,1.73
2023-05-18T17:41:43.865Z,1.42
2023-05-18T17:44:13.943Z,2.17
2023-05-18T17:46:41.716Z,2.65
2023-05-18T17:49:08.806Z,1.88
2023-05-18T17:51:35.555Z,1.63
2023-05-18T17:54:02.496Z,1.25
2023-05-18T17:56:30.396Z,1.60
2023-05-18T17:58:58.869Z,2.88
2023-05-18T18:01:26.180Z,1.65
2023-05-18T18:03:53.112Z,1.75
2023-05-18T18:06:22.576Z,1.17
2023-05-18T18:08:50.297Z,2.53
2023-05-18T18:11:17.357Z,1.65
2023-05-18T18:13:44.059Z,1.95
2023-05-18T18:16:10.845Z,1.73
2023-05-18T18:18:38.130Z,2.25
2023-05-18T18:21:06.545Z,1.80
2023-05-18T18:23:34.650Z,1.60
2023-05-18T18:26:02.239Z,1.88
2023-05-18T18:28:29.336Z,1.50
2023-05-18T18:30:57.235Z,1.50
2023-05-18T18:33:25.989Z,1.70
2023-05-18T18:35:57.128Z,1.73
2023-05-18T18:38:26.837Z,1.27
2023-05-18T18:40:57.699Z,1.63
2023-05-18T18:43:24.469Z,1.83
2023-05-18T18:45:51.172Z,1.85
2023-05-18T18:48:21.062Z,1.88
2023-05-18T18:50:48.093Z,1.40
2023-05-18T18:53:14.882Z,1.70
2023-05-18T18:55:41.694Z,1.60
2023-05-18T18:58:08.457Z,2.00
2023-05-18T19:00:35.166Z,1.60
2023-05-18T19:03:02.239Z,1.85
2023-05-18T19:05:30.815Z,1.65
2023-05-18T19:07:57.915Z,1.17
2023-05-18T19:10:25.431Z,1.60
2023-05-18T19:12:53.520Z,1.60
2023-05-18T19:15:21.426Z,1.58
2023-05-18T19:17:57.034Z,2.05
2023-05-18T19:20:23.821Z,1.55
2023-05-18T19:22:53.129Z,2.28
2023-05-18T19:25:21.760Z,1.38
2023-05-18T19:27:48.507Z,1.55
2023-05-18T19:30:20.871Z,2.00
2023-05-18T19:32:49.655Z,1.60
2023-05-18T19:35:19.508Z,1.40
2023-05-18T19:37:47.134Z,1.50
2023-05-18T19:40:14.291Z,1.88
2023-05-18T19:42:41.477Z,1.20
2023-05-18T19:45:08.825Z,1.52
2023-05-18T19:47:36.839Z,1.60
2023-05-18T19:50:04.739Z,1.40
2023-05-18T19:52:33.777Z,1.42
2023-05-18T19:55:02.691Z,1.85
2023-05-18T19:57:30.330Z,1.70
2023-05-18T19:59:58.076Z,2.15
2023-05-18T20:02:25.838Z,1.60
2023-05-18T20:04:53.584Z,1.50
2023-05-18T20:07:20.717Z,1.55
2023-05-18T20:09:47.993Z,2.25
2023-05-18T20:12:14.750Z,1.90
2023-05-18T20:14:43.374Z,1.60
2023-05-18T20:17:10.207Z,1.88
2023-05-18T20:19:37.770Z,1.80
2023-05-18T20:22:05.002Z,2.33
2023-05-18T20:24:32.576Z,1.75
2023-05-18T20:26:59.435Z,2.10
2023-05-18T20:29:26.199Z,2.38
2023-05-18T20:31:54.589Z,2.25
2023-05-18T20:34:21.432Z,2.03
2023-05-18T20:36:48.115Z,1.75
2023-05-18T20:39:14.897Z,1.85
2023-05-18T20:41:41.810Z,2.20
2023-05-18T20:44:11.292Z,2.30
2023-05-18T20:46:42.210Z,2.20
2023-05-18T20:49:09.604Z,2.15
2023-05-18T20:51:36.360Z,1.95
2023-05-18T20:54:03.519Z,2.13
2023-05-18T20:56:30.347Z,2.60
2023-05-18T20:58:59.039Z,2.35
2023-05-18T21:01:28.695Z,2.75
2023-05-18T21:03:59.165Z,2.38
2023-05-18T21:06:26.253Z,2.65
2023-05-18T21:08:53.014Z,2.20
2023-05-18T21:11:19.800Z,2.50
2023-05-18T21:13:46.488Z,2.60
2023-05-18T21:16:13.371Z,2.58
2023-05-18T21:18:40.481Z,2.13
2023-05-18T21:21:07.306Z,2.60
2023-05-18T21:23:34.283Z,2.67
2023-05-18T21:26:02.254Z,2.55
2023-05-18T21:28:28.993Z,2.45
2023-05-18T21:30:56.083Z,2.72
2023-05-18T21:33:22.983Z,2.55
2023-05-18T21:35:49.763Z,3.03
2023-05-18T21:38:17.398Z,3.55
2023-05-18T21:40:44.421Z,2.38
2023-05-18T21:43:12.734Z,2.35
2023-05-18T21:45:40.290Z,3.10
2023-05-18T21:48:07.790Z,3.50
2023-05-18T21:50:35.380Z,2.22
2023-05-18T21:53:03.253Z,2.20
2023-05-18T21:55:33.591Z,2.38
2023-05-18T21:58:00.555Z,2.80
2023-05-18T22:00:28.528Z,2.75
2023-05-18T22:02:55.573Z,2.53
2023-05-18T22:05:22.345Z,2.42
2023-05-18T22:07:49.688Z,2.97
2023-05-18T22:10:18.016Z,1.85
2023-05-18T22:12:45.110Z,2.20
2023-05-18T22:15:12.095Z,2.88
2023-05-18T22:17:39.297Z,2.90
2023-05-18T22:20:08.987Z,2.83
2023-05-18T22:22:35.821Z,2.70
2023-05-18T22:25:02.594Z,2.35
2023-05-18T22:27:29.392Z,2.60
2023-05-18T22:29:56.141Z,2.70
2023-05-18T22:32:23.086Z,2.70
2023-05-18T22:34:50.059Z,2.35
2023-05-18T22:37:16.823Z,2.90
2023-05-18T22:39:44.366Z,3.10
2023-05-18T22:42:11.680Z,3.17
2023-05-18T22:44:38.409Z,3.25
2023-05-18T22:47:05.451Z,2.72
2023-05-18T22:49:32.503Z,3.08
2023-05-18T22:51:59.845Z,2.40
2023-05-18T22:54:26.587Z,3.13
2023-05-18T22:56:53.278Z,2.97
2023-05-18T22:59:20.461Z,3.08
2023-05-18T23:01:52.548Z,3.08
2023-05-18T23:04:19.657Z,2.75
2023-05-18T23:06:48.754Z,3.40
2023-05-18T23:09:15.942Z,3.22
2023-05-18T23:11:51.362Z,3.00
2023-05-18T23:14:19.926Z,2.70
2023-05-18T23:16:49.143Z,2.63
2023-05-18T23:19:19.828Z,3.20
2023-05-18T23:21:46.854Z,3.85
2023-05-18T23:24:15.288Z,2.92
2023-05-18T23:26:42.749Z,3.63
2023-05-18T23:29:10.021Z,3.20
2023-05-18T23:31:37.192Z,3.55
2023-05-18T23:34:04.466Z,3.70
2023-05-18T23:36:35.112Z,3.05
2023-05-18T23:39:03.604Z,3.28
2023-05-18T23:41:31.934Z,2.92
2023-05-18T23:43:59.287Z,3.40
2023-05-18T23:46:26.539Z,3.15
2023-05-18T23:48:54.077Z,3.40
2023-05-18T23:51:21.204Z,3.80
2023-05-18T23:53:49.864Z,3.80
2023-05-18T23:56:17.208Z,3.33
2023-05-18T23:58:46.435Z,3.28
